createdAt,value
2019-03-21T00:00:49.293Z,100970.36
2019-03-21T00:04:54.721Z,100962.72
2019-03-21T00:08:59.668Z,100968.69
2019-03-21T00:13:03.264Z,100967.39
2019-03-21T00:17:07.076Z,100957.05
2019-03-21T00:21:11.611Z,100964.97
2019-03-21T00:25:16.747Z,100973.72
2019-03-21T00:29:20.556Z,100970.20
2019-03-21T00:33:24.070Z,100971.39
2019-03-21T00:37:27.488Z,100976.55
2019-03-21T00:41:31.295Z,100974.95
2019-03-21T00:45:34.831Z,100984.36
2019-03-21T00:49:38.443Z,100987.23
2019-03-21T00:53:42.098Z,100999.19
2019-03-21T00:57:45.809Z,100998.06
2019-03-21T01:01:50.621Z,100992.75
2019-03-21T01:05:54.348Z,100985.77
2019-03-21T01:09:57.992Z,100985.55
2019-03-21T01:14:01.633Z,100980.38
2019-03-21T01:18:05.151Z,100982.82
2019-03-21T01:22:08.736Z,100984.28
2019-03-21T01:26:12.171Z,100981.97
2019-03-21T01:30:16.619Z,100979.45
2019-03-21T01:34:20.140Z,100999.70
2019-03-21T01:38:23.730Z,100998.87
2019-03-21T01:42:27.364Z,100998.34
2019-03-21T01:46:30.944Z,101008.34
2019-03-21T01:50:34.565Z,101009.08
2019-03-21T01:54:38.016Z,101015.84
2019-03-21T01:58:41.642Z,101008.52
2019-03-21T02:02:45.778Z,101009.78
2019-03-21T02:06:49.245Z,101006.95
2019-03-21T02:10:52.769Z,101005.59
2019-03-21T02:14:56.231Z,101013.77
2019-03-21T02:19:00.793Z,101026.00
2019-03-21T02:23:07.367Z,101020.57
2019-03-21T02:27:11.014Z,101034.14
2019-03-21T02:31:14.591Z,101027.28
2019-03-21T02:35:18.315Z,101017.18
2019-03-21T02:39:22.038Z,101009.87
2019-03-21T02:43:25.804Z,101022.20
2019-03-21T02:47:29.437Z,101008.12
2019-03-21T02:51:33.176Z,101037.28
2019-03-21T02:55:36.897Z,101029.67
2019-03-21T02:59:41.388Z,101040.30
2019-03-21T03:03:44.968Z,101052.59
2019-03-21T03:07:49.674Z,101048.17
2019-03-21T03:11:53.203Z,101050.81
2019-03-21T03:15:56.773Z,101052.16
2019-03-21T03:20:00.592Z,101070.39
2019-03-21T03:24:04.484Z,101062.42
2019-03-21T03:28:11.636Z,101056.83
2019-03-21T03:32:15.348Z,101053.62
2019-03-21T03:36:18.852Z,101063.55
2019-03-21T03:40:25.614Z,101061.11
2019-03-21T03:44:30.058Z,101058.22
2019-03-21T03:48:34.680Z,101052.69
2019-03-21T03:52:38.349Z,101052.84
2019-03-21T03:56:42.033Z,101049.44
2019-03-21T04:00:45.683Z,101055.65
2019-03-21T04:04:49.739Z,101054.81
